createdAt,value
2023-02-11T00:00:45.845Z,6.60
2023-02-11T00:04:54.420Z,6.60
2023-02-11T00:09:04.020Z,6.60
2023-02-11T00:13:12.666Z,6.60
2023-02-11T00:17:21.231Z,6.60
2023-02-11T00:21:30.641Z,6.60
2023-02-11T00:25:45.107Z,6.60
2023-02-11T00:29:53.740Z,6.60
2023-02-11T00:34:02.456Z,6.60
2023-02-11T00:38:11.048Z,6.60
2023-02-11T00:42:19.606Z,6.60
2023-02-11T00:46:28.250Z,6.50
2023-02-11T00:50:36.826Z,6.60
2023-02-11T00:54:45.389Z,6.60
2023-02-11T00:58:54.097Z,6.50
2023-02-11T01:03:02.671Z,6.50
2023-02-11T01:07:11.229Z,6.70
2023-02-11T01:11:21.738Z,6.60
2023-02-11T01:15:30.600Z,6.60
2023-02-11T01:19:39.688Z,6.60
2023-02-11T01:23:48.407Z,6.60
2023-02-11T01:27:57.009Z,6.70
2023-02-11T01:32:05.665Z,6.70
2023-02-11T01:36:14.231Z,6.60
2023-02-11T01:40:22.821Z,6.60
2023-02-11T01:44:37.201Z,6.60
2023-02-11T01:48:51.653Z,6.60
2023-02-11T01:53:01.912Z,6.60
2023-02-11T01:57:22.575Z,6.50
2023-02-11T02:01:34.403Z,6.50
2023-02-11T02:05:54.592Z,6.60
2023-02-11T02:10:12.196Z,6.50
2023-02-11T02:14:21.002Z,6.50
2023-02-11T02:19:05.617Z,6.50
2023-02-11T02:23:35.182Z,6.50
2023-02-11T02:28:01.771Z,6.40
2023-02-11T02:32:47.699Z,6.50
2023-02-11T02:37:19.835Z,6.40
2023-02-11T02:41:34.507Z,6.50
2023-02-11T02:45:43.056Z,6.50
2023-02-11T02:49:51.639Z,6.50
2023-02-11T02:54:22.428Z,6.60
2023-02-11T02:58:48.966Z,6.60
2023-02-11T03:03:12.295Z,6.50
2023-02-11T03:07:32.726Z,6.50
2023-02-11T03:11:41.427Z,6.40
2023-02-11T03:15:53.212Z,6.40
2023-02-11T03:20:04.497Z,6.30
2023-02-11T03:24:18.641Z,6.40
2023-02-11T03:28:39.166Z,6.40
2023-02-11T03:32:56.444Z,6.40
2023-02-11T03:37:13.963Z,6.40
2023-02-11T03:41:24.927Z,6.40
2023-02-11T03:45:33.974Z,6.40
2023-02-11T03:49:45.728Z,6.30
2023-02-11T03:53:57.684Z,6.40
2023-02-11T03:58:06.480Z,6.40
2023-02-11T04:02:15.026Z,6.30
2023-02-11T04:06:23.591Z,6.40
2023-02-11T04:10:32.152Z,6.30
2023-02-11T04:14:40.721Z,6.20
2023-02-11T04:18:49.381Z,6.30
2023-02-11T04:22:57.947Z,6.40
2023-02-11T04:27:06.577Z,6.30
2023-02-11T04:31:15.211Z,6.20
2023-02-11T04:35:23.805Z,6.30
2023-02-11T04:39:33.283Z,6.20
2023-02-11T04:43:41.821Z,6.30
2023-02-11T04:47:50.366Z,6.40
2023-02-11T04:51:59.027Z,6.40
2023-02-11T04:56:07.665Z,6.20
2023-02-11T05:00:16.923Z,6.20
2023-02-11T05:04:25.682Z,6.10
2023-02-11T05:08:34.334Z,6.10
2023-02-11T05:12:42.902Z,6.10
2023-02-11T05:16:51.508Z,6.20
2023-02-11T05:21:00.041Z,6.20
2023-02-11T05:25:08.757Z,6.10
2023-02-11T05:29:17.315Z,6.20
2023-02-11T05:33:25.871Z,6.20
2023-02-11T05:37:34.459Z,6.30
2023-02-11T05:41:42.998Z,6.20
2023-02-11T05:45:51.999Z,6.20
2023-02-11T05:50:00.799Z,6.20
2023-02-11T05:54:09.403Z,6.20
2023-02-11T05:58:17.969Z,6.30
2023-02-11T06:02:26.634Z,6.20
2023-02-11T06:06:35.266Z,6.20
2023-02-11T06:10:46.110Z,6.20
2023-02-11T06:14:54.745Z,6.20
2023-02-11T06:19:03.374Z,6.20
2023-02-11T06:23:11.952Z,6.10
2023-02-11T06:27:20.514Z,6.20
2023-02-11T06:31:29.495Z,6.20
2023-02-11T06:35:39.901Z,6.20
2023-02-11T06:39:48.536Z,6.20
2023-02-11T06:43:57.092Z,6.20
2023-02-11T06:48:05.731Z,6.20
2023-02-11T06:52:14.305Z,6.30
2023-02-11T06:56:26.451Z,6.30
2023-02-11T07:00:35.031Z,6.40
2023-02-11T07:04:43.981Z,6.40
2023-02-11T07:08:52.526Z,6.30
2023-02-11T07:13:01.107Z,6.30
2023-02-11T07:17:09.689Z,6.30
2023-02-11T07:21:21.209Z,6.40
2023-02-11T07:25:29.763Z,6.30
2023-02-11T07:29:38.333Z,6.20
2023-02-11T07:33:46.974Z,6.30
2023-02-11T07:37:55.554Z,6.30
2023-02-11T07:42:04.835Z,6.30
2023-02-11T07:46:16.574Z,6.50
2023-02-11T07:50:25.096Z,6.40
2023-02-11T07:54:33.661Z,6.40
2023-02-11T07:58:43.041Z,6.40
2023-02-11T08:02:51.606Z,6.40
2023-02-11T08:07:00.249Z,6.50
2023-02-11T08:11:10.246Z,6.50
2023-02-11T08:15:18.862Z,6.40
2023-02-11T08:19:27.611Z,6.50
2023-02-11T08:23:38.386Z,6.50
2023-02-11T08:27:47.045Z,6.50
2023-02-11T08:31:55.634Z,6.50
2023-02-11T08:36:13.092Z,6.60
2023-02-11T08:40:21.821Z,6.60
2023-02-11T08:44:30.446Z,6.70
2023-02-11T08:48:39.077Z,6.70
2023-02-11T08:52:47.710Z,6.80
2023-02-11T08:56:56.432Z,6.90
2023-02-11T09:01:13.177Z,6.90
2023-02-11T09:05:22.598Z,6.90
2023-02-11T09:09:31.159Z,6.90
2023-02-11T09:13:42.661Z,6.90
2023-02-11T09:17:51.240Z,7.00
2023-02-11T09:22:00.088Z,6.90
2023-02-11T09:26:10.179Z,7.00
2023-02-11T09:30:18.835Z,6.90
2023-02-11T09:34:27.409Z,7.00
2023-02-11T09:38:36.260Z,7.00
2023-02-11T09:43:09.009Z,7.10
2023-02-11T09:47:35.045Z,7.20
2023-02-11T09:51:58.897Z,7.20
2023-02-11T09:56:10.573Z,7.30
2023-02-11T10:00:22.376Z,7.30
2023-02-11T10:04:43.043Z,7.20
2023-02-11T10:09:09.670Z,7.20
2023-02-11T10:13:33.202Z,7.20
2023-02-11T10:18:13.275Z,7.30
2023-02-11T10:22:24.909Z,7.30
2023-02-11T10:26:36.376Z,7.40
2023-02-11T10:31:05.775Z,7.40
2023-02-11T10:35:21.377Z,7.50
2023-02-11T10:39:30.247Z,7.60
2023-02-11T10:43:39.165Z,7.70
2023-02-11T10:47:47.721Z,7.60
2023-02-11T10:51:59.354Z,7.70
2023-02-11T10:56:09.081Z,7.90
2023-02-11T11:00:21.378Z,8.00
2023-02-11T11:04:36.428Z,7.90
2023-02-11T11:08:50.420Z,7.80
2023-02-11T11:12:59.029Z,7.80
2023-02-11T11:17:10.669Z,7.80
2023-02-11T11:21:31.450Z,7.90
2023-02-11T11:25:43.084Z,7.80
2023-02-11T11:29:54.369Z,7.80
2023-02-11T11:34:06.029Z,8.10
2023-02-11T11:38:15.799Z,8.00
2023-02-11T11:42:35.551Z,8.00
2023-02-11T11:46:46.986Z,8.00
2023-02-11T11:51:04.616Z,8.10
2023-02-11T11:55:24.898Z,8.30
2023-02-11T11:59:33.548Z,8.50
2023-02-11T12:04:01.515Z,8.40
2023-02-11T12:08:21.817Z,8.50
2023-02-11T12:12:53.372Z,8.60
2023-02-11T12:17:16.971Z,8.70
2023-02-11T12:21:40.752Z,8.50
2023-02-11T12:26:08.938Z,8.40
2023-02-11T12:30:26.182Z,8.50
2023-02-11T12:34:55.907Z,8.50
2023-02-11T12:39:27.010Z,8.60
2023-02-11T12:43:38.481Z,8.40
2023-02-11T12:48:01.532Z,8.80
2023-02-11T12:52:31.107Z,8.60
2023-02-11T12:56:48.341Z,8.60
2023-02-11T13:01:08.850Z,8.60
2023-02-11T13:05:29.528Z,8.50
2023-02-11T13:09:43.894Z,8.50
2023-02-11T13:14:04.309Z,8.90
2023-02-11T13:18:44.854Z,8.70
2023-02-11T13:22:57.176Z,8.80
2023-02-11T13:27:31.700Z,8.90
2023-02-11T13:31:40.366Z,8.70
2023-02-11T13:36:02.112Z,8.80
2023-02-11T13:40:26.094Z,8.70
2023-02-11T13:44:35.583Z,8.80
2023-02-11T13:48:49.198Z,8.70
2023-02-11T13:53:03.570Z,8.70
2023-02-11T13:57:23.724Z,8.90
2023-02-11T14:01:44.387Z,8.80
2023-02-11T14:06:37.946Z,8.80
2023-02-11T14:10:52.752Z,8.90
2023-02-11T14:15:08.062Z,9.00
2023-02-11T14:19:19.713Z,9.00
2023-02-11T14:23:28.534Z,9.10
2023-02-11T14:27:45.902Z,9.20
2023-02-11T14:32:21.104Z,9.40
2023-02-11T14:36:46.213Z,9.50
2023-02-11T14:41:06.766Z,9.60
2023-02-11T14:45:18.508Z,9.60
2023-02-11T14:49:33.540Z,9.60
2023-02-11T14:53:47.309Z,9.50
2023-02-11T14:58:17.551Z,9.40
2023-02-11T15:02:32.198Z,9.50
2023-02-11T15:06:42.701Z,9.50
2023-02-11T15:10:51.766Z,9.50
2023-02-11T15:15:01.861Z,9.40
2023-02-11T15:19:13.502Z,9.40
2023-02-11T15:23:27.493Z,9.40
2023-02-11T15:27:47.491Z,9.30
2023-02-11T15:32:07.586Z,9.30
2023-02-11T15:36:17.726Z,9.20
2023-02-11T15:40:29.719Z,9.10
2023-02-11T15:44:38.291Z,9.10
2023-02-11T15:48:50.240Z,9.30
2023-02-11T15:53:01.844Z,9.30
2023-02-11T15:57:11.535Z,9.30
2023-02-11T16:01:20.151Z,9.30
2023-02-11T16:05:40.706Z,9.30
2023-02-11T16:09:52.324Z,9.50
2023-02-11T16:14:03.234Z,9.40
2023-02-11T16:18:28.458Z,9.20
2023-02-11T16:22:34.079Z,9.10
2023-02-11T16:26:45.068Z,9.10
2023-02-11T16:30:55.299Z,9.00
2023-02-11T16:35:05.714Z,9.00
2023-02-11T16:39:14.712Z,9.00
2023-02-11T16:43:23.283Z,8.90
2023-02-11T16:47:32.021Z,8.90
2023-02-11T16:51:41.995Z,8.80
2023-02-11T16:55:51.388Z,8.90
2023-02-11T17:00:00.360Z,8.80
2023-02-11T17:04:14.791Z,8.70
2023-02-11T17:08:24.185Z,8.70
2023-02-11T17:12:32.736Z,8.70
2023-02-11T17:16:41.499Z,8.70
2023-02-11T17:20:50.188Z,8.70
2023-02-11T17:24:58.889Z,8.60
2023-02-11T17:29:09.907Z,8.60
2023-02-11T17:33:19.118Z,8.60
2023-02-11T17:37:28.733Z,8.60
2023-02-11T17:41:40.944Z,8.60
2023-02-11T17:45:49.759Z,8.60
2023-02-11T17:49:58.487Z,8.60
2023-02-11T17:54:10.040Z,8.60
2023-02-11T17:58:18.595Z,8.50
2023-02-11T18:02:27.170Z,8.60
2023-02-11T18:06:35.887Z,8.50
2023-02-11T18:10:44.439Z,8.50
2023-02-11T18:14:58.029Z,8.50
2023-02-11T18:19:07.540Z,8.60
2023-02-11T18:23:16.072Z,8.60
2023-02-11T18:27:24.655Z,8.50
2023-02-11T18:31:35.137Z,8.50
2023-02-11T18:35:45.774Z,8.60
2023-02-11T18:39:54.536Z,8.50
2023-02-11T18:44:04.429Z,8.40
2023-02-11T18:48:13.056Z,8.50
2023-02-11T18:52:21.690Z,8.40
2023-02-11T18:56:30.254Z,8.40
2023-02-11T19:00:41.046Z,8.40
2023-02-11T19:04:49.628Z,8.40
2023-02-11T19:09:01.273Z,8.40
2023-02-11T19:13:10.550Z,8.30
2023-02-11T19:17:19.130Z,8.30
2023-02-11T19:21:27.727Z,8.30
2023-02-11T19:25:36.526Z,8.30
2023-02-11T19:29:45.083Z,8.30
2023-02-11T19:33:53.633Z,8.30
2023-02-11T19:38:02.768Z,8.30
2023-02-11T19:42:11.791Z,8.30
2023-02-11T19:46:25.002Z,8.30
2023-02-11T19:50:33.522Z,8.30
2023-02-11T19:54:42.072Z,8.30
2023-02-11T19:58:50.716Z,8.30
2023-02-11T20:02:59.410Z,8.20
2023-02-11T20:07:08.783Z,8.20
2023-02-11T20:11:18.435Z,8.20
2023-02-11T20:15:27.118Z,8.30
2023-02-11T20:19:35.684Z,8.20
2023-02-11T20:23:46.371Z,8.20
2023-02-11T20:27:55.201Z,8.20
2023-02-11T20:32:03.981Z,8.20
2023-02-11T20:36:15.716Z,8.20
2023-02-11T20:40:24.278Z,8.20
2023-02-11T20:44:32.837Z,8.20
2023-02-11T20:48:41.390Z,8.20
2023-02-11T20:52:49.991Z,8.20
2023-02-11T20:56:59.641Z,8.20
2023-02-11T21:01:15.210Z,8.20
2023-02-11T21:05:23.766Z,8.10
2023-02-11T21:09:34.259Z,8.10
2023-02-11T21:13:43.549Z,8.10
2023-02-11T21:17:52.198Z,8.10
2023-02-11T21:22:01.709Z,8.10
2023-02-11T21:26:10.355Z,8.10
2023-02-11T21:30:19.042Z,8.10
2023-02-11T21:34:27.624Z,8.10
2023-02-11T21:38:37.161Z,8.10
2023-02-11T21:42:45.729Z,8.10
2023-02-11T21:46:54.326Z,8.10
2023-02-11T21:51:07.878Z,8.10
2023-02-11T21:55:16.419Z,8.10
2023-02-11T21:59:25.153Z,8.10
2023-02-11T22:03:33.731Z,8.10
2023-02-11T22:07:42.306Z,8.00
2023-02-11T22:11:50.885Z,8.00
2023-02-11T22:16:00.988Z,8.00
2023-02-11T22:20:10.211Z,8.00
2023-02-11T22:24:18.726Z,8.00
2023-02-11T22:28:27.329Z,8.00
2023-02-11T22:32:35.926Z,8.00
2023-02-11T22:36:45.355Z,8.00
2023-02-11T22:40:53.924Z,8.00
2023-02-11T22:45:03.058Z,8.00
2023-02-11T22:49:14.569Z,7.90
2023-02-11T22:53:24.757Z,8.00
2023-02-11T22:57:33.394Z,7.90
2023-02-11T23:01:42.529Z,8.00
2023-02-11T23:05:51.061Z,8.00
2023-02-11T23:09:59.631Z,7.90
2023-02-11T23:14:10.141Z,8.00
2023-02-11T23:18:18.674Z,8.00
2023-02-11T23:22:27.237Z,7.90
2023-02-11T23:26:35.944Z,8.00
2023-02-11T23:30:44.509Z,7.90
2023-02-11T23:34:53.076Z,8.00
2023-02-11T23:39:01.723Z,7.90
2023-02-11T23:43:10.300Z,7.90
2023-02-11T23:47:18.869Z,7.90
2023-02-11T23:51:27.494Z,7.90
2023-02-11T23:55:37.698Z,7.90
2023-02-11T23:59:47.810Z,7.90
